Time;durP1;ratioP1;P1;durP2;ratioP2;P2;SDS_P1;SDS_P2;PMS_P1;PMS_P2;Temp;Humidity;BMP_temperature;BMP_pressure;BME280_temperature;BME280_humidity;BME280_pressure;Samples;Min_cycle;Max_cycle;Signal;HPM_P1;HPM_P2
2023/03/30 00:00:17;;;;;;;13.27;7.47;;;;;;;;;;337476;29;950;-82
2023/03/30 00:00:27;;;;;;;12.57;7.78;;;;;;;;;;337035;29;829;-94
2023/03/30 00:00:38;;;;;;;12.20;7.75;;;;;;;;;;338538;29;1169;-81
2023/03/30 00:00:48;;;;;;;12.43;7.80;;;;;;;;;;338828;29;935;-81
2023/03/30 00:00:59;;;;;;;11.93;7.68;;;;;;;;;;334587;29;1287;-81
2023/03/30 00:01:13;;;;;;;11.87;8.00;;;;;;;;;;337517;29;837;-81
2023/03/30 00:01:24;;;;;;;12.93;8.15;;;;;;;;;;337377;29;1360;-81
2023/03/30 00:01:34;;;;;;;14.43;8.25;;;;;;;;;;333420;29;1218;-85
2023/03/30 00:01:47;;;;;;;15.17;8.47;;;;;;;;;;334860;29;1266;-81
2023/03/30 00:01:58;;;;;;;14.13;7.97;;;;;;;;;;338348;29;1966;-81
2023/03/30 00:02:08;;;;;;;12.40;7.67;;;;;;;;;;340936;29;1380;-81
2023/03/30 00:02:21;;;;;;;12.45;7.72;;;;;;;;;;334966;29;1422;-81
2023/03/30 00:02:37;;;;;;;11.07;7.82;;;;;;;;;;336092;29;856;-81
2023/03/30 00:02:49;;;;;;;14.05;7.82;;;;;;;;;;336264;29;971;-82
2023/03/30 00:03:01;;;;;;;14.43;7.78;;;;;;;;;;335923;29;889;-89
2023/03/30 00:03:12;;;;;;;11.27;7.13;;;;;;;;;;336268;29;987;-81
2023/03/30 00:03:22;;;;;;;12.60;7.37;;;;;;;;;;338842;29;915;-81
2023/03/30 00:03:33;;;;;;;13.40;7.53;;;;;;;;;;339783;29;1449;-82
2023/03/30 00:03:44;;;;;;;14.70;8.07;;;;;;;;;;338831;29;851;-81
2023/03/30 00:03:54;;;;;;;14.88;8.30;;;;;;;;;;339973;29;1573;-81
2023/03/30 00:04:05;;;;;;;13.65;8.55;;;;;;;;;;338423;29;1265;-81
2023/03/30 00:04:17;;;;;;;11.65;7.80;;;;;;;;;;338863;29;880;-91
2023/03/30 00:04:28;;;;;;;11.40;7.65;;;;;;;;;;336075;29;928;-80
2023/03/30 00:04:41;;;;;;;12.73;8.07;;;;;;;;;;337352;29;1453;-81
2023/03/30 00:04:52;;;;;;;12.98;8.75;;;;;;;;;;337561;29;951;-81
2023/03/30 00:05:03;;;;;;;12.65;8.63;;;;;;;;;;337212;29;579;-81
2023/03/30 00:05:14;;;;;;;11.80;8.23;;;;;;;;;;337561;29;923;-80
2023/03/30 00:05:25;;;;;;;12.30;7.40;;;;;;;;;;337616;29;923;-81
2023/03/30 00:05:35;;;;;;;15.18;8.18;;;;;;;;;;337453;29;924;-80
2023/03/30 00:05:46;;;;;;;15.60;8.40;;;;;;;;;;337537;29;1115;-82
2023/03/30 00:06:02;;;;;;;15.40;8.75;;;;;;;;;;337345;29;904;-82
2023/03/30 00:06:20;;;;;;;15.10;8.40;;;;;;;;;;336233;29;932;-88
2023/03/30 00:06:31;;;;;;;12.85;8.30;;;;;;;;;;336107;29;845;-81
2023/03/30 00:06:41;;;;;;;11.50;8.13;;;;;;;;;;334801;29;892;-80
2023/03/30 00:06:52;;;;;;;12.55;8.20;;;;;;;;;;337420;29;1284;-81
2023/03/30 00:07:04;;;;;;;13.50;8.00;;;;;;;;;;339734;29;864;-91
2023/03/30 00:07:18;;;;;;;16.05;8.02;;;;;;;;;;340244;29;879;-92
2023/03/30 00:07:29;;;;;;;15.82;7.95;;;;;;;;;;338583;29;1409;-81
2023/03/30 00:07:41;;;;;;;13.90;8.20;;;;;;;;;;337479;29;914;-81
2023/03/30 00:07:51;;;;;;;13.23;8.37;;;;;;;;;;337094;29;1261;-82
2023/03/30 00:08:02;;;;;;;12.43;7.97;;;;;;;;;;335882;29;1258;-81
2023/03/30 00:08:17;;;;;;;12.60;7.53;;;;;;;;;;337461;29;1352;-80
2023/03/30 00:08:27;;;;;;;13.70;7.68;;;;;;;;;;337425;29;852;-81
2023/03/30 00:08:38;;;;;;;13.90;8.10;;;;;;;;;;337457;29;845;-81
2023/03/30 00:08:55;;;;;;;13.27;8.38;;;;;;;;;;336082;29;1503;-81
2023/03/30 00:09:08;;;;;;;13.63;7.93;;;;;;;;;;336120;29;1284;-93
2023/03/30 00:09:21;;;;;;;14.27;8.13;;;;;;;;;;338793;29;1334;-81
2023/03/30 00:09:41;;;;;;;11.43;8.02;;;;;;;;;;336070;29;1309;-81
2023/03/30 00:09:53;;;;;;;10.73;7.80;;;;;;;;;;338842;29;872;-81
2023/03/30 00:10:05;;;;;;;14.55;8.00;;;;;;;;;;337219;29;896;-84
2023/03/30 00:10:16;;;;;;;15.25;8.20;;;;;;;;;;336255;29;1407;-89
2023/03/30 00:10:28;;;;;;;14.20;8.18;;;;;;;;;;337138;29;1918;-81
2023/03/30 00:10:39;;;;;;;12.32;8.20;;;;;;;;;;337308;29;1218;-84
2023/03/30 00:10:51;;;;;;;13.45;8.68;;;;;;;;;;336221;29;881;-81
2023/03/30 00:11:06;;;;;;;13.23;8.55;;;;;;;;;;335988;29;892;-83
2023/03/30 00:11:17;;;;;;;13.95;8.77;;;;;;;;;;337570;29;1486;-92
2023/03/30 00:11:33;;;;;;;13.93;8.40;;;;;;;;;;337286;29;1391;-81
2023/03/30 00:11:44;;;;;;;13.85;8.18;;;;;;;;;;337462;29;960;-81
2023/03/30 00:11:54;;;;;;;13.20;8.80;;;;;;;;;;337589;29;959;-81
2023/03/30 00:12:05;;;;;;;13.35;8.52;;;;;;;;;;337410;29;1319;-93
2023/03/30 00:12:19;;;;;;;12.33;7.63;;;;;;;;;;340263;29;1177;-92
2023/03/30 00:12:29;;;;;;;14.15;7.80;;;;;;;;;;338800;29;825;-82
2023/03/30 00:12:42;;;;;;;14.23;8.27;;;;;;;;;;338675;29;832;-80
2023/03/30 00:12:52;;;;;;;12.82;8.18;;;;;;;;;;338679;29;1317;-81
2023/03/30 00:13:03;;;;;;;13.73;8.53;;;;;;;;;;339936;29;824;-82
2023/03/30 00:13:13;;;;;;;14.13;8.68;;;;;;;;;;338816;29;1149;-81
2023/03/30 00:13:24;;;;;;;14.50;9.03;;;;;;;;;;337471;29;1372;-81
2023/03/30 00:13:35;;;;;;;14.85;9.05;;;;;;;;;;338603;29;1186;-82
2023/03/30 00:13:45;;;;;;;15.32;8.52;;;;;;;;;;338699;29;1170;-81
2023/03/30 00:13:55;;;;;;;15.93;8.53;;;;;;;;;;338717;29;1252;-81
2023/03/30 00:14:09;;;;;;;13.93;8.20;;;;;;;;;;338507;29;1233;-81
2023/03/30 00:14:20;;;;;;;14.88;8.32;;;;;;;;;;338721;29;1218;-82
2023/03/30 00:14:30;;;;;;;14.27;8.18;;;;;;;;;;335998;29;1345;-81
2023/03/30 00:14:41;;;;;;;14.10;8.32;;;;;;;;;;338572;29;1232;-81
2023/03/30 00:14:52;;;;;;;13.63;8.10;;;;;;;;;;338049;29;1366;-82
2023/03/30 00:15:04;;;;;;;14.23;8.05;;;;;;;;;;334572;29;1237;-81
2023/03/30 00:15:16;;;;;;;14.23;8.95;;;;;;;;;;335949;29;958;-82
2023/03/30 00:15:27;;;;;;;13.40;8.85;;;;;;;;;;337281;29;1911;-81
2023/03/30 00:15:38;;;;;;;14.57;8.70;;;;;;;;;;336054;29;1247;-81
2023/03/30 00:15:48;;;;;;;16.52;8.82;;;;;;;;;;336092;29;1194;-82
2023/03/30 00:15:59;;;;;;;17.88;9.15;;;;;;;;;;336199;29;1155;-81
2023/03/30 00:16:11;;;;;;;17.27;8.97;;;;;;;;;;333281;29;1364;-81
2023/03/30 00:16:21;;;;;;;15.20;9.40;;;;;;;;;;334871;29;931;-85
2023/03/30 00:16:32;;;;;;;15.07;9.40;;;;;;;;;;338619;29;1403;-81
2023/03/30 00:16:42;;;;;;;14.33;9.47;;;;;;;;;;338566;29;1257;-81
2023/03/30 00:16:52;;;;;;;14.63;9.10;;;;;;;;;;336151;29;1326;-81
2023/03/30 00:17:03;;;;;;;14.90;9.20;;;;;;;;;;337146;29;1147;-81
2023/03/30 00:17:16;;;;;;;14.25;8.90;;;;;;;;;;337468;29;1449;-80
2023/03/30 00:17:26;;;;;;;12.68;9.02;;;;;;;;;;337358;29;849;-82
2023/03/30 00:17:37;;;;;;;13.13;9.30;;;;;;;;;;338717;29;938;-82
2023/03/30 00:17:49;;;;;;;14.43;9.57;;;;;;;;;;334879;29;1207;-81
2023/03/30 00:18:00;;;;;;;13.80;9.27;;;;;;;;;;333612;29;881;-80
2023/03/30 00:18:10;;;;;;;14.35;8.82;;;;;;;;;;334857;29;904;-95
2023/03/30 00:18:21;;;;;;;15.93;9.45;;;;;;;;;;336106;29;1392;-82
2023/03/30 00:18:33;;;;;;;16.43;9.83;;;;;;;;;;336101;29;1378;-81
2023/03/30 00:18:46;;;;;;;15.43;9.35;;;;;;;;;;336094;29;1388;-81
2023/03/30 00:18:56;;;;;;;11.82;8.20;;;;;;;;;;336208;29;655;-81
2023/03/30 00:19:07;;;;;;;11.43;7.85;;;;;;;;;;334691;29;821;-80
2023/03/30 00:19:17;;;;;;;11.63;8.13;;;;;;;;;;335994;29;1359;-81
2023/03/30 00:19:28;;;;;;;12.32;8.32;;;;;;;;;;336053;29;1207;-81
2023/03/30 00:19:39;;;;;;;12.93;8.50;;;;;;;;;;336125;29;1572;-81
2023/03/30 00:19:49;;;;;;;14.30;9.10;;;;;;;;;;334899;29;962;-81
2023/03/30 00:20:10;;;;;;;15.18;9.25;;;;;;;;;;336154;29;924;-81
2023/03/30 00:20:20;;;;;;;15.55;8.63;;;;;;;;;;338736;29;920;-85
2023/03/30 00:20:31;;;;;;;15.32;8.70;;;;;;;;;;337372;29;856;-91
2023/03/30 00:20:41;;;;;;;14.13;8.88;;;;;;;;;;337361;29;1187;-80
2023/03/30 00:20:52;;;;;;;13.33;8.63;;;;;;;;;;336007;29;1070;-81
2023/03/30 00:21:03;;;;;;;14.30;9.27;;;;;;;;;;333229;29;1440;-89
2023/03/30 00:21:16;;;;;;;14.85;9.57;;;;;;;;;;337225;29;1481;-81
2023/03/30 00:21:28;;;;;;;14.32;9.52;;;;;;;;;;338508;29;955;-80
2023/03/30 00:21:38;;;;;;;13.35;8.60;;;;;;;;;;340100;29;864;-83
2023/03/30 00:21:49;;;;;;;13.03;8.10;;;;;;;;;;337364;29;1246;-81
2023/03/30 00:22:00;;;;;;;14.70;8.27;;;;;;;;;;337340;29;1332;-81
2023/03/30 00:22:11;;;;;;;15.20;8.98;;;;;;;;;;339802;29;801;-81
2023/03/30 00:22:21;;;;;;;15.52;9.25;;;;;;;;;;340049;29;809;-81
2023/03/30 00:22:32;;;;;;;14.53;9.17;;;;;;;;;;338501;29;896;-81
2023/03/30 00:22:43;;;;;;;14.23;8.95;;;;;;;;;;338530;29;809;-81
2023/03/30 00:22:54;;;;;;;15.30;9.05;;;;;;;;;;336255;29;829;-92
2023/03/30 00:23:04;;;;;;;14.68;9.20;;;;;;;;;;336069;29;1509;-81
2023/03/30 00:23:15;;;;;;;13.87;9.23;;;;;;;;;;337458;29;813;-91
2023/03/30 00:23:26;;;;;;;12.65;9.10;;;;;;;;;;338721;29;1332;-83
2023/03/30 00:23:37;;;;;;;13.65;9.30;;;;;;;;;;340055;29;1218;-81
2023/03/30 00:23:48;;;;;;;15.77;9.52;;;;;;;;;;337387;29;1363;-83
2023/03/30 00:23:58;;;;;;;15.32;9.43;;;;;;;;;;337341;29;1395;-81
2023/03/30 00:24:11;;;;;;;15.38;8.90;;;;;;;;;;337220;29;1529;-81
2023/03/30 00:24:22;;;;;;;16.27;9.15;;;;;;;;;;336001;29;1449;-81
2023/03/30 00:24:33;;;;;;;17.30;9.10;;;;;;;;;;336222;29;935;-85
2023/03/30 00:24:44;;;;;;;14.32;8.57;;;;;;;;;;337541;29;865;-81
2023/03/30 00:24:55;;;;;;;11.93;8.30;;;;;;;;;;337490;29;891;-81
2023/03/30 00:25:07;;;;;;;12.13;8.50;;;;;;;;;;340842;29;1485;-81
2023/03/30 00:25:18;;;;;;;14.05;9.32;;;;;;;;;;340103;29;915;-81
2023/03/30 00:25:28;;;;;;;14.50;8.93;;;;;;;;;;340071;29;765;-81
2023/03/30 00:25:39;;;;;;;14.45;9.50;;;;;;;;;;340020;29;1255;-90
2023/03/30 00:25:49;;;;;;;14.77;9.47;;;;;;;;;;337452;29;1322;-82
2023/03/30 00:26:00;;;;;;;15.48;9.27;;;;;;;;;;337444;29;884;-81
2023/03/30 00:26:11;;;;;;;15.80;8.65;;;;;;;;;;339918;29;825;-92
2023/03/30 00:26:22;;;;;;;16.05;8.85;;;;;;;;;;338632;29;1361;-82
2023/03/30 00:26:32;;;;;;;16.98;9.00;;;;;;;;;;338811;29;945;-81
2023/03/30 00:26:43;;;;;;;16.63;9.17;;;;;;;;;;338642;29;1162;-81
2023/03/30 00:26:53;;;;;;;16.55;9.40;;;;;;;;;;339994;29;880;-82
2023/03/30 00:27:04;;;;;;;15.77;9.67;;;;;;;;;;340718;29;1237;-81
2023/03/30 00:27:17;;;;;;;15.88;9.52;;;;;;;;;;338454;29;1253;-82
2023/03/30 00:27:28;;;;;;;15.05;9.40;;;;;;;;;;337282;29;1315;-88
2023/03/30 00:27:38;;;;;;;15.35;9.30;;;;;;;;;;337446;29;1446;-80
2023/03/30 00:27:49;;;;;;;13.98;8.80;;;;;;;;;;338791;29;936;-84
2023/03/30 00:27:59;;;;;;;14.00;8.77;;;;;;;;;;338716;29;782;-81
2023/03/30 00:28:10;;;;;;;14.13;9.38;;;;;;;;;;339876;29;821;-81
2023/03/30 00:28:25;;;;;;;14.83;9.97;;;;;;;;;;338240;29;1455;-86
2023/03/30 00:28:35;;;;;;;15.68;9.75;;;;;;;;;;336988;29;1234;-84
2023/03/30 00:28:46;;;;;;;14.98;9.45;;;;;;;;;;336091;29;864;-82
2023/03/30 00:28:57;;;;;;;15.18;9.20;;;;;;;;;;333444;29;946;-81
2023/03/30 00:29:07;;;;;;;13.10;8.73;;;;;;;;;;335462;29;793;-80
2023/03/30 00:29:21;;;;;;;13.43;8.88;;;;;;;;;;336108;29;813;-81
2023/03/30 00:29:31;;;;;;;12.18;8.60;;;;;;;;;;336120;29;1387;-81
2023/03/30 00:29:42;;;;;;;13.63;8.65;;;;;;;;;;335036;29;1549;-81
2023/03/30 00:29:52;;;;;;;13.33;8.50;;;;;;;;;;334964;29;915;-85
2023/03/30 00:30:04;;;;;;;16.35;8.88;;;;;;;;;;334707;29;813;-93
2023/03/30 00:30:15;;;;;;;15.98;9.35;;;;;;;;;;335842;29;848;-81
2023/03/30 00:30:26;;;;;;;15.80;9.55;;;;;;;;;;336060;29;1915;-81
2023/03/30 00:30:37;;;;;;;14.82;9.13;;;;;;;;;;336216;29;829;-81
2023/03/30 00:30:47;;;;;;;15.32;9.27;;;;;;;;;;334837;29;842;-81
2023/03/30 00:30:58;;;;;;;15.17;10.07;;;;;;;;;;334702;29;1337;-81
2023/03/30 00:31:10;;;;;;;15.65;10.35;;;;;;;;;;335933;29;790;-81
2023/03/30 00:31:20;;;;;;;16.55;10.00;;;;;;;;;;337460;29;841;-82
2023/03/30 00:31:31;;;;;;;16.95;9.63;;;;;;;;;;334887;29;976;-80
2023/03/30 00:31:42;;;;;;;17.40;10.10;;;;;;;;;;336171;29;955;-81
2023/03/30 00:31:52;;;;;;;15.80;9.38;;;;;;;;;;336278;29;841;-82
2023/03/30 00:32:03;;;;;;;17.05;9.80;;;;;;;;;;337397;29;1182;-82
2023/03/30 00:32:13;;;;;;;16.73;9.97;;;;;;;;;;338525;29;796;-82
2023/03/30 00:32:24;;;;;;;17.83;10.50;;;;;;;;;;338755;29;1158;-81
2023/03/30 00:32:35;;;;;;;16.57;10.30;;;;;;;;;;338672;29;1230;-81
2023/03/30 00:32:46;;;;;;;15.38;9.77;;;;;;;;;;337637;29;833;-82
2023/03/30 00:32:56;;;;;;;15.17;9.13;;;;;;;;;;336233;29;844;-81
2023/03/30 00:33:07;;;;;;;14.05;8.63;;;;;;;;;;335933;29;860;-83
2023/03/30 00:33:17;;;;;;;16.87;9.20;;;;;;;;;;335960;29;825;-87
2023/03/30 00:33:27;;;;;;;16.40;9.55;;;;;;;;;;336078;29;1075;-89
2023/03/30 00:33:38;;;;;;;16.33;10.00;;;;;;;;;;335021;29;845;-82
2023/03/30 00:33:48;;;;;;;14.02;9.70;;;;;;;;;;334908;29;782;-81
2023/03/30 00:33:59;;;;;;;13.73;9.77;;;;;;;;;;336011;29;1210;-81
2023/03/30 00:34:09;;;;;;;13.57;9.70;;;;;;;;;;334581;29;1304;-81
2023/03/30 00:34:20;;;;;;;14.23;9.50;;;;;;;;;;334965;29;845;-89
2023/03/30 00:34:30;;;;;;;13.95;9.23;;;;;;;;;;334871;29;940;-82
2023/03/30 00:34:41;;;;;;;14.93;9.40;;;;;;;;;;336229;29;840;-81
2023/03/30 00:34:51;;;;;;;14.63;9.75;;;;;;;;;;336226;29;805;-83
2023/03/30 00:35:02;;;;;;;14.47;9.80;;;;;;;;;;336040;29;899;-81
2023/03/30 00:35:13;;;;;;;13.95;9.45;;;;;;;;;;335921;29;802;-81
2023/03/30 00:35:25;;;;;;;15.60;9.43;;;;;;;;;;337417;29;856;-81
2023/03/30 00:35:36;;;;;;;17.02;9.30;;;;;;;;;;334843;29;892;-81
2023/03/30 00:35:56;;;;;;;16.27;9.18;;;;;;;;;;336269;29;817;-80
2023/03/30 00:36:07;;;;;;;14.98;9.13;;;;;;;;;;336155;29;920;-82
2023/03/30 00:36:18;;;;;;;14.72;8.88;;;;;;;;;;335936;29;882;-81
2023/03/30 00:36:29;;;;;;;15.00;9.53;;;;;;;;;;336144;29;876;-81
2023/03/30 00:36:39;;;;;;;15.52;9.73;;;;;;;;;;334965;29;892;-81
2023/03/30 00:36:52;;;;;;;15.63;9.82;;;;;;;;;;334969;29;833;-81
2023/03/30 00:37:02;;;;;;;14.07;9.23;;;;;;;;;;334765;29;945;-81
2023/03/30 00:37:14;;;;;;;14.75;9.68;;;;;;;;;;335834;29;860;-81
2023/03/30 00:37:24;;;;;;;15.02;9.32;;;;;;;;;;334652;29;849;-81
2023/03/30 00:37:36;;;;;;;16.17;9.68;;;;;;;;;;336054;29;1243;-81
2023/03/30 00:37:48;;;;;;;16.38;9.85;;;;;;;;;;336212;29;924;-81
2023/03/30 00:38:02;;;;;;;16.08;10.38;;;;;;;;;;334855;29;900;-81
2023/03/30 00:38:12;;;;;;;14.75;10.13;;;;;;;;;;334606;29;845;-80
2023/03/30 00:38:24;;;;;;;13.80;9.60;;;;;;;;;;334912;29;846;-81
2023/03/30 00:38:35;;;;;;;14.13;9.43;;;;;;;;;;336203;29;841;-81
2023/03/30 00:38:47;;;;;;;14.00;9.88;;;;;;;;;;336189;29;801;-81
2023/03/30 00:38:57;;;;;;;14.77;10.35;;;;;;;;;;336100;29;943;-80
2023/03/30 00:39:08;;;;;;;14.95;10.25;;;;;;;;;;336043;29;864;-80
2023/03/30 00:39:21;;;;;;;16.33;9.97;;;;;;;;;;338034;29;1203;-81
2023/03/30 00:39:32;;;;;;;17.40;10.35;;;;;;;;;;338726;29;845;-81
2023/03/30 00:39:43;;;;;;;16.85;10.63;;;;;;;;;;337563;29;880;-92
2023/03/30 00:39:53;;;;;;;15.23;10.13;;;;;;;;;;337534;29;801;-80
2023/03/30 00:40:08;;;;;;;16.77;10.32;;;;;;;;;;336155;29;971;-81
2023/03/30 00:40:20;;;;;;;15.75;10.32;;;;;;;;;;335854;29;920;-81
2023/03/30 00:40:31;;;;;;;14.30;10.25;;;;;;;;;;337447;29;935;-80
2023/03/30 00:40:52;;;;;;;13.70;9.77;;;;;;;;;;337522;29;856;-81
2023/03/30 00:41:02;;;;;;;16.00;9.98;;;;;;;;;;335971;29;845;-81
2023/03/30 00:41:13;;;;;;;17.73;10.20;;;;;;;;;;337024;29;801;-82
2023/03/30 00:41:23;;;;;;;16.33;9.83;;;;;;;;;;336179;29;797;-81
2023/03/30 00:41:34;;;;;;;14.98;9.77;;;;;;;;;;337631;29;903;-89
2023/03/30 00:41:45;;;;;;;13.02;9.25;;;;;;;;;;338977;29;1369;-93
2023/03/30 00:41:58;;;;;;;15.53;9.60;;;;;;;;;;340209;29;1252;-80
2023/03/30 00:42:15;;;;;;;18.23;10.15;;;;;;;;;;340307;29;872;-81
2023/03/30 00:42:26;;;;;;;16.27;10.10;;;;;;;;;;337642;29;1486;-80
2023/03/30 00:42:36;;;;;;;15.03;9.93;;;;;;;;;;338908;29;1567;-81
2023/03/30 00:42:47;;;;;;;15.75;10.27;;;;;;;;;;336403;29;1206;-81
2023/03/30 00:43:02;;;;;;;16.08;10.45;;;;;;;;;;340178;29;1280;-81
2023/03/30 00:43:12;;;;;;;16.67;10.40;;;;;;;;;;338576;29;1284;-81
2023/03/30 00:43:23;;;;;;;16.80;9.75;;;;;;;;;;337671;29;1550;-81
2023/03/30 00:43:34;;;;;;;18.13;9.73;;;;;;;;;;337660;29;912;-81
2023/03/30 00:43:55;;;;;;;16.77;9.98;;;;;;;;;;336369;29;1296;-81
2023/03/30 00:44:07;;;;;;;15.18;9.35;;;;;;;;;;337448;29;1287;-80
2023/03/30 00:44:56;;;;;;;14.68;9.05;;;;;;;;;;337320;29;829;-93
2023/03/30 00:45:17;;;;;;;13.90;10.30;;;;;;;;;;333512;29;1437;-81
2023/03/30 00:45:32;;;;;;;14.13;9.95;;;;;;;;;;330971;29;1413;-81
2023/03/30 00:45:42;;;;;;;15.07;9.77;;;;;;;;;;333007;29;1412;-83
2023/03/30 00:45:55;;;;;;;15.95;10.13;;;;;;;;;;335035;29;1172;-81
2023/03/30 00:46:05;;;;;;;16.35;10.43;;;;;;;;;;336695;29;1385;-82
2023/03/30 00:46:16;;;;;;;15.25;10.02;;;;;;;;;;336110;29;703;-84
2023/03/30 00:46:28;;;;;;;15.33;9.83;;;;;;;;;;337709;29;837;-84
2023/03/30 00:46:38;;;;;;;15.32;9.80;;;;;;;;;;337570;29;1254;-81
2023/03/30 00:46:49;;;;;;;16.00;10.43;;;;;;;;;;338982;29;908;-83
2023/03/30 00:46:59;;;;;;;15.40;10.53;;;;;;;;;;337487;29;1191;-89
2023/03/30 00:47:10;;;;;;;15.02;10.60;;;;;;;;;;336098;29;1340;-82
2023/03/30 00:47:20;;;;;;;14.77;10.57;;;;;;;;;;338683;29;895;-81
2023/03/30 00:47:31;;;;;;;14.75;10.48;;;;;;;;;;337667;29;1379;-82
2023/03/30 00:47:45;;;;;;;14.75;10.23;;;;;;;;;;338961;29;1249;-81
2023/03/30 00:48:11;;;;;;;14.77;10.13;;;;;;;;;;336321;29;1277;-81
2023/03/30 00:48:39;;;;;;;15.98;10.75;;;;;;;;;;337314;29;1361;-81
2023/03/30 00:48:50;;;;;;;15.50;11.15;;;;;;;;;;340210;29;837;-81
2023/03/30 00:49:04;;;;;;;14.40;10.10;;;;;;;;;;340029;29;1184;-81
2023/03/30 00:49:15;;;;;;;14.30;10.13;;;;;;;;;;337354;29;1384;-85
2023/03/30 00:49:25;;;;;;;14.45;10.30;;;;;;;;;;337624;29;892;-81
2023/03/30 00:49:36;;;;;;;15.80;10.63;;;;;;;;;;337580;29;1211;-82
2023/03/30 00:49:49;;;;;;;16.88;10.10;;;;;;;;;;337747;29;888;-81
2023/03/30 00:49:59;;;;;;;16.90;10.27;;;;;;;;;;337656;29;966;-81
2023/03/30 00:50:11;;;;;;;15.73;10.32;;;;;;;;;;337584;29;1218;-81
2023/03/30 00:50:24;;;;;;;16.67;10.20;;;;;;;;;;337336;29;1376;-82
2023/03/30 00:50:51;;;;;;;16.42;10.15;;;;;;;;;;340087;29;1380;-81
2023/03/30 00:51:06;;;;;;;14.55;9.88;;;;;;;;;;340229;29;840;-81
2023/03/30 00:51:19;;;;;;;15.32;10.45;;;;;;;;;;337199;29;1272;-81
2023/03/30 00:51:31;;;;;;;15.82;10.52;;;;;;;;;;336163;29;1195;-83
2023/03/30 00:51:41;;;;;;;16.52;10.73;;;;;;;;;;335199;29;834;-83
2023/03/30 00:51:52;;;;;;;16.38;10.32;;;;;;;;;;337653;29;1213;-81
2023/03/30 00:52:02;;;;;;;16.40;10.53;;;;;;;;;;340169;29;1177;-81
2023/03/30 00:52:18;;;;;;;17.15;10.45;;;;;;;;;;334694;29;1190;-85
2023/03/30 00:52:28;;;;;;;16.50;10.77;;;;;;;;;;335021;29;845;-80
2023/03/30 00:52:39;;;;;;;15.38;10.50;;;;;;;;;;335144;29;881;-81
2023/03/30 00:52:51;;;;;;;14.95;10.15;;;;;;;;;;336326;29;1210;-81
2023/03/30 00:53:05;;;;;;;17.67;10.35;;;;;;;;;;337541;29;837;-81
2023/03/30 00:53:28;;;;;;;17.48;10.20;;;;;;;;;;337674;29;888;-83
2023/03/30 00:53:41;;;;;;;17.75;10.25;;;;;;;;;;337755;29;872;-81
2023/03/30 00:53:54;;;;;;;20.63;10.77;;;;;;;;;;337736;29;753;-82
2023/03/30 00:54:34;;;;;;;18.33;10.10;;;;;;;;;;336325;29;888;-81
2023/03/30 00:54:45;;;;;;;16.88;10.32;;;;;;;;;;335963;29;1354;-82
2023/03/30 00:54:55;;;;;;;16.38;10.48;;;;;;;;;;337780;29;860;-90
2023/03/30 00:55:06;;;;;;;14.87;10.63;;;;;;;;;;336176;29;1167;-81
2023/03/30 00:55:18;;;;;;;13.85;10.30;;;;;;;;;;336323;29;1267;-81
2023/03/30 00:55:35;;;;;;;13.88;10.80;;;;;;;;;;334907;29;1222;-81
2023/03/30 00:55:46;;;;;;;16.27;11.07;;;;;;;;;;336309;29;959;-92
2023/03/30 00:55:57;;;;;;;15.30;10.23;;;;;;;;;;336394;29;797;-82
2023/03/30 00:56:09;;;;;;;15.77;9.98;;;;;;;;;;336288;29;1308;-82
2023/03/30 00:56:26;;;;;;;16.05;10.18;;;;;;;;;;336187;29;881;-80
2023/03/30 00:56:37;;;;;;;16.08;10.05;;;;;;;;;;334977;29;945;-81
2023/03/30 00:56:47;;;;;;;16.30;10.00;;;;;;;;;;336449;29;802;-83
2023/03/30 00:56:58;;;;;;;16.20;9.95;;;;;;;;;;336354;29;805;-85
2023/03/30 00:57:08;;;;;;;16.63;10.20;;;;;;;;;;336347;29;857;-81
2023/03/30 00:57:21;;;;;;;17.53;10.23;;;;;;;;;;336072;29;1206;-80
2023/03/30 00:57:32;;;;;;;17.88;10.45;;;;;;;;;;335956;29;878;-85
2023/03/30 00:57:45;;;;;;;18.63;10.98;;;;;;;;;;336353;29;877;-82
2023/03/30 00:57:55;;;;;;;17.17;10.75;;;;;;;;;;337747;29;945;-81
2023/03/30 00:58:06;;;;;;;16.27;11.20;;;;;;;;;;337544;29;860;-81
2023/03/30 00:58:16;;;;;;;14.60;10.55;;;;;;;;;;337666;29;1242;-83
2023/03/30 00:58:27;;;;;;;14.77;10.70;;;;;;;;;;338734;29;892;-81
2023/03/30 00:58:38;;;;;;;15.57;10.27;;;;;;;;;;336420;29;805;-81
2023/03/30 00:58:48;;;;;;;17.23;10.65;;;;;;;;;;335131;29;826;-83
2023/03/30 00:59:00;;;;;;;16.45;10.48;;;;;;;;;;336324;29;825;-82
2023/03/30 00:59:10;;;;;;;16.73;10.95;;;;;;;;;;335076;29;1253;-95
2023/03/30 00:59:20;;;;;;;15.40;10.20;;;;;;;;;;338609;29;1379;-81
2023/03/30 00:59:31;;;;;;;16.77;10.02;;;;;;;;;;337279;29;1241;-84
2023/03/30 00:59:41;;;;;;;15.90;9.63;;;;;;;;;;336116;29;805;-82
2023/03/30 00:59:52;;;;;;;17.13;10.25;;;;;;;;;;338897;29;1438;-81
2023/03/30 01:00:06;;;;;;;16.40;10.47;;;;;;;;;;337442;29;1287;-82
2023/03/30 01:00:17;;;;;;;17.17;10.52;;;;;;;;;;336356;29;912;-82
2023/03/30 01:00:28;;;;;;;16.85;10.55;;;;;;;;;;336042;29;1195;-81
2023/03/30 01:00:38;;;;;;;17.10;10.60;;;;;;;;;;335096;29;837;-81
2023/03/30 01:00:49;;;;;;;16.50;10.18;;;;;;;;;;333805;29;1350;-81
2023/03/30 01:01:00;;;;;;;15.50;10.00;;;;;;;;;;334975;29;1345;-80
2023/03/30 01:01:14;;;;;;;16.23;9.93;;;;;;;;;;335118;29;987;-81
2023/03/30 01:01:27;;;;;;;16.15;10.07;;;;;;;;;;336602;29;1372;-84
2023/03/30 01:01:39;;;;;;;17.02;10.32;;;;;;;;;;335165;29;1388;-83
2023/03/30 01:01:49;;;;;;;15.20;10.15;;;;;;;;;;335208;29;877;-80
2023/03/30 01:02:00;;;;;;;15.73;10.07;;;;;;;;;;336208;29;1187;-82
2023/03/30 01:02:10;;;;;;;15.05;10.18;;;;;;;;;;336417;29;908;-81
2023/03/30 01:02:22;;;;;;;14.97;10.27;;;;;;;;;;336176;29;782;-81
2023/03/30 01:02:32;;;;;;;15.32;10.55;;;;;;;;;;335066;29;842;-81
2023/03/30 01:02:54;;;;;;;16.93;10.40;;;;;;;;;;335019;29;1282;-90
2023/03/30 01:03:12;;;;;;;15.15;10.25;;;;;;;;;;336257;29;868;-80
2023/03/30 01:03:26;;;;;;;16.05;10.68;;;;;;;;;;336080;29;1297;-81
2023/03/30 01:03:38;;;;;;;16.13;10.43;;;;;;;;;;336411;29;1475;-81
2023/03/30 01:03:49;;;;;;;15.95;10.25;;;;;;;;;;337676;29;1415;-81
2023/03/30 01:04:01;;;;;;;16.33;10.60;;;;;;;;;;337532;29;1199;-80
2023/03/30 01:04:12;;;;;;;16.83;10.98;;;;;;;;;;336331;29;1214;-81
2023/03/30 01:04:22;;;;;;;17.33;11.18;;;;;;;;;;336081;29;1421;-81
2023/03/30 01:04:36;;;;;;;18.80;11.35;;;;;;;;;;337547;29;1261;-81
2023/03/30 01:04:47;;;;;;;17.95;11.13;;;;;;;;;;340308;29;835;-81
2023/03/30 01:04:57;;;;;;;17.45;10.73;;;;;;;;;;338938;29;825;-81
2023/03/30 01:05:08;;;;;;;16.80;10.18;;;;;;;;;;337619;29;1460;-85
2023/03/30 01:05:19;;;;;;;16.95;10.38;;;;;;;;;;337575;29;1277;-81
2023/03/30 01:05:29;;;;;;;15.52;9.90;;;;;;;;;;337275;29;837;-81
2023/03/30 01:05:40;;;;;;;15.23;9.60;;;;;;;;;;338942;29;1261;-80
2023/03/30 01:05:50;;;;;;;16.25;10.13;;;;;;;;;;337594;29;1353;-81
2023/03/30 01:06:04;;;;;;;17.23;10.60;;;;;;;;;;336247;29;798;-93
2023/03/30 01:06:20;;;;;;;16.23;10.38;;;;;;;;;;336299;29;1339;-81
2023/03/30 01:06:32;;;;;;;15.60;10.48;;;;;;;;;;334805;29;850;-81
2023/03/30 01:06:45;;;;;;;16.38;11.32;;;;;;;;;;335019;29;1988;-80
2023/03/30 01:06:56;;;;;;;15.98;10.98;;;;;;;;;;338766;29;1045;-84
2023/03/30 01:07:11;;;;;;;15.04;10.42;;;;;;;;;;338634;29;954;-81
2023/03/30 01:07:23;;;;;;;16.30;9.95;;;;;;;;;;337712;29;940;-83
2023/03/30 01:07:33;;;;;;;17.30;10.70;;;;;;;;;;338804;29;1368;-82
2023/03/30 01:07:45;;;;;;;16.83;10.43;;;;;;;;;;336332;29;1198;-81
2023/03/30 01:07:56;;;;;;;16.15;10.25;;;;;;;;;;337533;29;1342;-86
2023/03/30 01:08:08;;;;;;;15.25;10.02;;;;;;;;;;336383;29;923;-92
2023/03/30 01:08:22;;;;;;;14.93;9.80;;;;;;;;;;337639;29;1529;-91
2023/03/30 01:08:33;;;;;;;17.40;10.98;;;;;;;;;;338311;29;1287;-82
2023/03/30 01:08:44;;;;;;;15.93;10.30;;;;;;;;;;336323;29;1343;-80
2023/03/30 01:08:56;;;;;;;15.18;10.98;;;;;;;;;;336278;29;802;-80
2023/03/30 01:09:07;;;;;;;12.65;9.93;;;;;;;;;;334911;29;1293;-81
2023/03/30 01:09:17;;;;;;;13.37;9.93;;;;;;;;;;336335;29;1195;-95
2023/03/30 01:09:28;;;;;;;13.53;9.87;;;;;;;;;;337362;29;876;-80
2023/03/30 01:09:39;;;;;;;14.03;10.07;;;;;;;;;;336142;29;1269;-90
2023/03/30 01:09:51;;;;;;;16.67;10.27;;;;;;;;;;332277;29;1451;-80
2023/03/30 01:10:07;;;;;;;18.10;10.52;;;;;;;;;;337084;29;1719;-83
2023/03/30 01:10:18;;;;;;;16.10;10.48;;;;;;;;;;338667;29;1353;-80
2023/03/30 01:10:28;;;;;;;14.07;10.35;;;;;;;;;;336759;29;1926;-80
2023/03/30 01:10:39;;;;;;;14.10;9.93;;;;;;;;;;337594;29;1486;-83
2023/03/30 01:10:52;;;;;;;14.40;9.52;;;;;;;;;;337810;29;1183;-83
2023/03/30 01:11:07;;;;;;;15.07;9.73;;;;;;;;;;337403;29;1569;-83
2023/03/30 01:11:17;;;;;;;14.73;10.20;;;;;;;;;;336401;29;940;-84
2023/03/30 01:11:28;;;;;;;15.32;10.32;;;;;;;;;;335989;29;865;-83
2023/03/30 01:11:39;;;;;;;15.47;9.90;;;;;;;;;;336449;29;825;-82
2023/03/30 01:11:49;;;;;;;15.25;9.82;;;;;;;;;;338096;29;1359;-91
2023/03/30 01:12:00;;;;;;;14.70;9.52;;;;;;;;;;337491;29;879;-82
2023/03/30 01:12:10;;;;;;;15.50;9.90;;;;;;;;;;336393;29;837;-82
2023/03/30 01:12:21;;;;;;;15.45;10.10;;;;;;;;;;336320;29;1274;-83
2023/03/30 01:12:31;;;;;;;16.77;10.33;;;;;;;;;;336120;29;869;-83
2023/03/30 01:12:42;;;;;;;16.25;10.77;;;;;;;;;;337644;29;1214;-84
2023/03/30 01:12:53;;;;;;;19.30;10.93;;;;;;;;;;336220;29;1175;-83